Time;durP1;ratioP1;P1;durP2;ratioP2;P2;SDS_P1;SDS_P2;PMS_P1;PMS_P2;Temp;Humidity;BMP_temperature;BMP_pressure;BME280_temperature;BME280_humidity;BME280_pressure;Samples;Min_cycle;Max_cycle;Signal;HPM_P1;HPM_P2
2023/08/29 00:02:08;;;;;;;4.45;2.08;;;;;;;;;;4983885;28;20031;-72
2023/08/29 00:04:34;;;;;;;4.55;2.30;;;;;;;;;;4984737;28;20038;-71
2023/08/29 00:07:00;;;;;;;4.03;2.60;;;;;;;;;;4984863;28;20038;-72
2023/08/29 00:09:26;;;;;;;2.47;2.03;;;;;;;;;;4990973;28;20038;-72
2023/08/29 00:11:52;;;;;;;5.03;2.65;;;;;;;;;;4988740;28;20042;-72
2023/08/29 00:14:18;;;;;;;4.20;2.50;;;;;;;;;;4980188;28;20034;-72
2023/08/29 00:16:44;;;;;;;4.82;2.28;;;;;;;;;;4988949;28;20038;-72
2023/08/29 00:19:10;;;;;;;5.05;2.90;;;;;;;;;;4988681;28;20069;-73
2023/08/29 00:21:37;;;;;;;5.80;2.60;;;;;;;;;;4989026;28;20519;-71
2023/08/29 00:24:03;;;;;;;4.20;2.60;;;;;;;;;;5004946;28;20035;-71
2023/08/29 00:26:29;;;;;;;4.10;2.90;;;;;;;;;;4987858;28;20034;-70
2023/08/29 00:28:55;;;;;;;5.53;3.15;;;;;;;;;;4988404;28;20041;-71
2023/08/29 00:31:21;;;;;;;3.53;2.72;;;;;;;;;;4983631;28;20026;-71
2023/08/29 00:33:47;;;;;;;3.78;2.47;;;;;;;;;;4984675;28;20038;-72
2023/08/29 00:36:13;;;;;;;5.97;2.30;;;;;;;;;;4985588;28;20041;-72
2023/08/29 00:38:39;;;;;;;3.15;2.67;;;;;;;;;;4986857;28;20078;-72
2023/08/29 00:41:05;;;;;;;3.40;2.30;;;;;;;;;;4990893;28;20114;-72
2023/08/29 00:43:31;;;;;;;4.35;2.67;;;;;;;;;;4992031;28;20026;-71
2023/08/29 00:45:57;;;;;;;5.38;2.88;;;;;;;;;;4985607;28;20034;-72
2023/08/29 00:48:24;;;;;;;4.85;2.88;;;;;;;;;;4981505;28;20121;-71
2023/08/29 00:50:51;;;;;;;5.85;3.03;;;;;;;;;;4989927;28;20085;-70
2023/08/29 00:53:17;;;;;;;5.60;2.72;;;;;;;;;;4983813;28;20050;-71
2023/08/29 00:55:43;;;;;;;5.07;2.83;;;;;;;;;;4986574;28;20030;-71
2023/08/29 00:58:09;;;;;;;3.45;3.15;;;;;;;;;;4978552;28;20034;-71
2023/08/29 01:00:36;;;;;;;4.22;2.80;;;;;;;;;;4971734;28;20640;-72
2023/08/29 01:03:02;;;;;;;3.45;2.72;;;;;;;;;;4982548;28;20137;-71
2023/08/29 01:05:28;;;;;;;3.33;3.03;;;;;;;;;;4977973;28;20559;-72
2023/08/29 01:07:59;;;;;;;3.35;2.42;;;;;;;;;;4985113;28;20721;-71
2023/08/29 01:10:32;;;;;;;3.10;2.55;;;;;;;;;;4983520;28;20057;-71
2023/08/29 01:12:57;;;;;;;;;;;;;;;;;;4988796;28;20038;-71
2023/08/29 01:15:27;;;;;;;7.40;2.90;;;;;;;;;;4984024;28;19927;-71
2023/08/29 01:18:02;;;;;;;5.38;2.40;;;;;;;;;;4976867;28;20065;-71
2023/08/29 01:20:29;;;;;;;3.40;2.63;;;;;;;;;;4988402;28;20046;-72
2023/08/29 01:22:58;;;;;;;4.38;2.90;;;;;;;;;;5007841;28;20026;-71
2023/08/29 01:25:31;;;;;;;5.75;2.80;;;;;;;;;;4986752;28;20109;-72
2023/08/29 01:27:57;;;;;;;3.53;2.65;;;;;;;;;;4988804;28;20031;-71
2023/08/29 01:30:24;;;;;;;4.60;2.80;;;;;;;;;;4986036;28;20520;-72
2023/08/29 01:32:52;;;;;;;4.95;2.63;;;;;;;;;;4981330;28;20041;-72
2023/08/29 01:35:18;;;;;;;1.90;1.80;;;;;;;;;;4983341;28;20110;-71
2023/08/29 01:37:44;;;;;;;2.72;2.38;;;;;;;;;;4994220;28;20034;-71
2023/08/29 01:40:10;;;;;;;2.80;2.03;;;;;;;;;;4983434;28;20105;-72
2023/08/29 01:42:36;;;;;;;3.10;1.55;;;;;;;;;;4997709;28;20088;-71
2023/08/29 01:45:03;;;;;;;2.22;1.55;;;;;;;;;;4984209;28;20036;-71
2023/08/29 01:47:29;;;;;;;4.05;1.85;;;;;;;;;;4997019;28;20030;-71
2023/08/29 01:49:55;;;;;;;3.95;1.95;;;;;;;;;;4986670;28;20567;-71
2023/08/29 01:52:21;;;;;;;4.45;2.25;;;;;;;;;;4987817;28;20046;-71
2023/08/29 01:54:47;;;;;;;1.45;1.33;;;;;;;;;;4996133;28;20034;-71
2023/08/29 01:57:14;;;;;;;3.78;2.05;;;;;;;;;;5003937;28;20093;-72
2023/08/29 01:59:41;;;;;;;2.80;1.35;;;;;;;;;;4989046;28;20045;-71
2023/08/29 02:02:07;;;;;;;1.30;1.20;;;;;;;;;;4983810;28;20057;-72
2023/08/29 02:04:33;;;;;;;2.60;1.45;;;;;;;;;;4979644;28;20034;-72
2023/08/29 02:07:00;;;;;;;3.85;1.63;;;;;;;;;;4983902;28;20038;-72
2023/08/29 02:09:26;;;;;;;2.97;2.00;;;;;;;;;;4987065;28;20050;-72
2023/08/29 02:11:52;;;;;;;1.77;1.67;;;;;;;;;;4985409;28;20031;-72
2023/08/29 02:14:17;;;;;;;2.22;1.70;;;;;;;;;;4993391;28;20549;-71
2023/08/29 02:16:43;;;;;;;4.97;2.00;;;;;;;;;;4986677;28;20101;-71
2023/08/29 02:19:09;;;;;;;3.17;1.80;;;;;;;;;;4990990;28;20034;-73
2023/08/29 02:21:35;;;;;;;1.83;1.63;;;;;;;;;;4991332;28;20031;-71
2023/08/29 02:24:05;;;;;;;1.77;1.67;;;;;;;;;;4982549;28;20038;-71
2023/08/29 02:26:31;;;;;;;3.97;1.85;;;;;;;;;;4997694;28;20080;-71
2023/08/29 02:28:57;;;;;;;1.45;1.35;;;;;;;;;;4982769;28;20050;-71
2023/08/29 02:31:23;;;;;;;1.48;1.38;;;;;;;;;;4978633;28;20031;-72
2023/08/29 02:33:49;;;;;;;1.85;1.13;;;;;;;;;;4980302;28;20035;-71
2023/08/29 02:36:15;;;;;;;1.58;1.45;;;;;;;;;;4988621;28;20137;-71
2023/08/29 02:38:41;;;;;;;2.03;1.83;;;;;;;;;;4988955;28;20456;-71
2023/08/29 02:41:07;;;;;;;2.05;1.88;;;;;;;;;;4986723;28;20058;-72
2023/08/29 02:43:33;;;;;;;2.22;2.03;;;;;;;;;;4983961;28;20039;-71
2023/08/29 02:45:59;;;;;;;1.88;1.60;;;;;;;;;;4988671;28;20077;-72
2023/08/29 02:48:27;;;;;;;3.10;2.00;;;;;;;;;;4988186;28;20050;-71
2023/08/29 02:50:53;;;;;;;2.70;2.10;;;;;;;;;;4999093;28;20120;-72
2023/08/29 02:53:20;;;;;;;3.05;2.38;;;;;;;;;;4990289;28;20148;-71
2023/08/29 02:55:47;;;;;;;1.95;1.83;;;;;;;;;;4995163;28;20121;-71
2023/08/29 02:58:13;;;;;;;2.42;2.22;;;;;;;;;;4987520;28;20117;-71
2023/08/29 03:00:39;;;;;;;2.55;2.35;;;;;;;;;;4990510;28;20586;-72
2023/08/29 03:03:05;;;;;;;2.17;1.88;;;;;;;;;;4985008;28;20047;-71
2023/08/29 03:05:31;;;;;;;2.40;1.90;;;;;;;;;;4989953;28;20415;-71
2023/08/29 03:07:57;;;;;;;3.35;2.47;;;;;;;;;;4987112;28;20444;-71
2023/08/29 03:10:24;;;;;;;2.85;2.15;;;;;;;;;;4984332;28;20443;-72
2023/08/29 03:12:53;;;;;;;2.97;2.65;;;;;;;;;;4986935;28;20038;-73
2023/08/29 03:15:19;;;;;;;3.33;2.38;;;;;;;;;;4980405;28;21783;-74
2023/08/29 03:17:45;;;;;;;2.58;2.38;;;;;;;;;;4991111;28;20039;-75
2023/08/29 03:20:12;;;;;;;3.38;2.38;;;;;;;;;;4990432;28;20049;-75
2023/08/29 03:22:38;;;;;;;3.13;2.38;;;;;;;;;;4984558;28;20038;-75
2023/08/29 03:25:05;;;;;;;2.35;2.15;;;;;;;;;;4980466;28;20412;-74
2023/08/29 03:27:31;;;;;;;5.93;2.22;;;;;;;;;;4987120;28;20026;-75
2023/08/29 03:29:58;;;;;;;2.25;2.00;;;;;;;;;;4982353;28;20044;-71
2023/08/29 03:32:24;;;;;;;25.35;16.55;;;;;;;;;;4987602;28;20073;-73
2023/08/29 03:34:54;;;;;;;8.10;6.95;;;;;;;;;;4989861;28;20424;-73
2023/08/29 03:37:20;;;;;;;2.50;2.30;;;;;;;;;;4998560;28;20026;-72
2023/08/29 03:39:46;;;;;;;2.95;2.65;;;;;;;;;;4993156;28;20863;-73
2023/08/29 03:42:12;;;;;;;2.35;2.15;;;;;;;;;;4985545;28;20040;-72
2023/08/29 03:44:38;;;;;;;2.50;2.30;;;;;;;;;;4975211;28;20160;-74
2023/08/29 03:47:04;;;;;;;4.07;2.40;;;;;;;;;;5013035;28;20511;-73
2023/08/29 03:49:30;;;;;;;3.13;2.85;;;;;;;;;;4984244;28;20042;-74
2023/08/29 03:51:56;;;;;;;2.83;2.40;;;;;;;;;;4987252;28;21944;-74
2023/08/29 03:54:22;;;;;;;3.20;2.88;;;;;;;;;;4990482;28;20542;-74
2023/08/29 03:56:48;;;;;;;6.78;3.55;;;;;;;;;;4979139;28;20037;-71
2023/08/29 03:59:15;;;;;;;20.55;12.50;;;;;;;;;;4982620;28;20090;-71
2023/08/29 04:01:50;;;;;;;11.90;7.85;;;;;;;;;;4990423;28;20587;-74
2023/08/29 04:04:16;;;;;;;3.63;2.83;;;;;;;;;;4976594;28;20444;-72
2023/08/29 04:06:42;;;;;;;4.43;2.92;;;;;;;;;;4977176;28;20123;-73
2023/08/29 04:09:10;;;;;;;4.45;2.50;;;;;;;;;;4987144;28;20141;-74
2023/08/29 04:11:36;;;;;;;2.72;2.20;;;;;;;;;;4988687;28;20030;-74
2023/08/29 04:14:03;;;;;;;2.33;2.13;;;;;;;;;;4989432;28;20043;-73
2023/08/29 04:16:29;;;;;;;2.80;2.22;;;;;;;;;;4979679;28;20427;-73
2023/08/29 04:18:55;;;;;;;2.40;2.20;;;;;;;;;;4990681;28;20052;-73
2023/08/29 04:21:21;;;;;;;2.42;2.22;;;;;;;;;;4997965;28;20038;-74
2023/08/29 04:23:47;;;;;;;2.70;2.20;;;;;;;;;;5003769;28;20165;-73
2023/08/29 04:26:13;;;;;;;3.92;2.55;;;;;;;;;;4982133;28;20113;-73
2023/08/29 04:28:39;;;;;;;3.03;2.40;;;;;;;;;;4993674;28;20069;-73
2023/08/29 04:31:08;;;;;;;4.63;2.88;;;;;;;;;;4995569;28;20425;-74
2023/08/29 04:33:34;;;;;;;3.42;2.20;;;;;;;;;;4986264;28;20636;-73
2023/08/29 04:36:00;;;;;;;6.82;4.38;;;;;;;;;;4974195;28;20038;-72
2023/08/29 04:38:26;;;;;;;3.10;2.72;;;;;;;;;;4998065;28;20513;-74
2023/08/29 04:40:56;;;;;;;6.55;2.40;;;;;;;;;;4990121;28;20034;-72
2023/08/29 04:43:21;;;;;;;2.95;2.65;;;;;;;;;;4987180;28;20106;-72
2023/08/29 04:45:50;;;;;;;5.28;2.42;;;;;;;;;;4984791;28;20034;-72
2023/08/29 04:48:17;;;;;;;2.22;1.88;;;;;;;;;;4982890;28;20030;-73
2023/08/29 04:50:45;;;;;;;2.85;2.65;;;;;;;;;;4986373;28;20047;-72
2023/08/29 04:53:11;;;;;;;3.17;2.85;;;;;;;;;;4982251;28;20054;-73
2023/08/29 04:55:37;;;;;;;3.50;2.80;;;;;;;;;;4999562;28;20430;-73
2023/08/29 04:58:03;;;;;;;3.42;2.15;;;;;;;;;;4989778;28;20026;-73
2023/08/29 05:00:29;;;;;;;2.75;2.22;;;;;;;;;;4992893;28;20500;-73
2023/08/29 05:02:56;;;;;;;3.90;2.45;;;;;;;;;;4985586;28;20022;-72
2023/08/29 05:05:22;;;;;;;5.22;2.63;;;;;;;;;;4998322;28;20069;-73
2023/08/29 05:07:48;;;;;;;7.75;2.38;;;;;;;;;;4978897;28;20027;-73
2023/08/29 05:10:14;;;;;;;5.88;2.30;;;;;;;;;;4984170;28;20038;-75
2023/08/29 05:12:41;;;;;;;3.15;2.85;;;;;;;;;;4973863;28;20061;-73
2023/08/29 05:15:07;;;;;;;4.72;2.85;;;;;;;;;;4982434;28;20033;-73
2023/08/29 05:17:33;;;;;;;3.00;2.70;;;;;;;;;;5011513;28;20061;-73
2023/08/29 05:19:59;;;;;;;2.85;2.58;;;;;;;;;;4998554;28;20046;-72
2023/08/29 05:22:25;;;;;;;3.80;2.80;;;;;;;;;;5000506;28;20118;-73
2023/08/29 05:24:52;;;;;;;9.95;2.28;;;;;;;;;;4993713;28;20042;-72
2023/08/29 05:27:18;;;;;;;2.90;2.40;;;;;;;;;;4991530;28;20034;-73
2023/08/29 05:29:43;;;;;;;3.83;2.58;;;;;;;;;;4982954;28;20095;-73
2023/08/29 05:32:10;;;;;;;4.15;2.70;;;;;;;;;;4987479;28;20108;-73
2023/08/29 05:34:36;;;;;;;3.67;2.25;;;;;;;;;;4983405;28;20110;-72
2023/08/29 05:37:03;;;;;;;2.53;2.30;;;;;;;;;;4992610;28;20203;-72
2023/08/29 05:39:29;;;;;;;5.50;3.05;;;;;;;;;;5001133;28;20092;-72
2023/08/29 05:41:55;;;;;;;3.63;2.38;;;;;;;;;;4988471;28;20058;-74
2023/08/29 05:44:21;;;;;;;3.00;2.33;;;;;;;;;;4988840;28;20119;-73
2023/08/29 05:46:47;;;;;;;3.67;2.28;;;;;;;;;;4999471;28;20500;-73
2023/08/29 05:49:13;;;;;;;2.42;2.22;;;;;;;;;;4986968;28;20030;-74
2023/08/29 05:51:39;;;;;;;3.35;2.20;;;;;;;;;;4994217;28;20034;-73
2023/08/29 05:54:06;;;;;;;3.90;2.70;;;;;;;;;;4981046;28;20045;-73
2023/08/29 05:56:32;;;;;;;3.35;2.38;;;;;;;;;;4996898;28;20177;-73
2023/08/29 05:58:58;;;;;;;5.18;2.80;;;;;;;;;;4995522;28;20088;-72
2023/08/29 06:01:24;;;;;;;3.05;2.63;;;;;;;;;;4988508;28;20034;-73
2023/08/29 06:03:50;;;;;;;4.68;3.00;;;;;;;;;;4985972;28;20061;-72
2023/08/29 06:06:16;;;;;;;3.13;2.45;;;;;;;;;;4984989;28;20038;-73
2023/08/29 06:08:42;;;;;;;4.65;2.75;;;;;;;;;;4991644;28;20113;-71
2023/08/29 06:11:09;;;;;;;3.67;3.35;;;;;;;;;;5000115;28;20053;-70
2023/08/29 06:13:35;;;;;;;3.35;2.63;;;;;;;;;;4995398;28;20039;-70
2023/08/29 06:16:01;;;;;;;2.97;2.30;;;;;;;;;;5008038;28;20387;-71
2023/08/29 06:18:27;;;;;;;5.65;2.78;;;;;;;;;;4992566;28;20034;-71
2023/08/29 06:20:53;;;;;;;3.70;2.53;;;;;;;;;;4991606;28;20058;-71
2023/08/29 06:23:19;;;;;;;3.58;2.90;;;;;;;;;;4988732;28;20053;-71
2023/08/29 06:25:45;;;;;;;4.68;3.22;;;;;;;;;;4987143;28;20038;-72
2023/08/29 06:28:11;;;;;;;4.28;3.30;;;;;;;;;;4992560;28;20432;-73
2023/08/29 06:30:37;;;;;;;4.38;3.42;;;;;;;;;;4990577;28;20065;-72
2023/08/29 06:33:06;;;;;;;5.13;3.30;;;;;;;;;;4992203;28;20034;-73
2023/08/29 06:35:34;;;;;;;5.72;3.22;;;;;;;;;;4987588;28;20038;-72
2023/08/29 06:38:00;;;;;;;5.55;3.08;;;;;;;;;;5005440;28;20060;-73
2023/08/29 06:40:26;;;;;;;3.85;3.38;;;;;;;;;;4987091;28;20046;-73
2023/08/29 06:42:52;;;;;;;7.55;3.13;;;;;;;;;;4996766;28;20041;-72
2023/08/29 06:45:18;;;;;;;6.50;3.72;;;;;;;;;;4997655;28;20446;-72
2023/08/29 06:47:44;;;;;;;4.32;3.33;;;;;;;;;;4992272;28;20037;-72
2023/08/29 06:50:11;;;;;;;8.82;3.17;;;;;;;;;;4999873;28;20092;-74
2023/08/29 06:52:37;;;;;;;5.22;3.47;;;;;;;;;;4985185;28;20108;-72
2023/08/29 06:55:03;;;;;;;4.75;3.10;;;;;;;;;;4991633;28;20440;-73
2023/08/29 06:57:29;;;;;;;7.13;3.08;;;;;;;;;;4996967;28;20057;-74
2023/08/29 06:59:55;;;;;;;6.25;3.03;;;;;;;;;;4989855;28;20050;-73
2023/08/29 07:02:21;;;;;;;6.22;3.38;;;;;;;;;;4992938;28;20042;-73
2023/08/29 07:04:48;;;;;;;4.63;3.15;;;;;;;;;;5001604;28;20072;-73
2023/08/29 07:07:14;;;;;;;6.68;2.90;;;;;;;;;;4994337;28;20037;-73
2023/08/29 07:09:40;;;;;;;6.88;2.90;;;;;;;;;;4989460;28;20489;-74
2023/08/29 07:12:06;;;;;;;3.30;2.70;;;;;;;;;;4997724;28;20083;-73
2023/08/29 07:14:32;;;;;;;5.18;2.65;;;;;;;;;;4996921;28;20036;-74
2023/08/29 07:16:58;;;;;;;6.53;2.75;;;;;;;;;;5003840;28;20042;-72
2023/08/29 07:19:24;;;;;;;3.53;3.03;;;;;;;;;;4996041;28;20041;-72
2023/08/29 07:21:51;;;;;;;2.70;2.30;;;;;;;;;;4986508;28;20040;-71
2023/08/29 07:24:17;;;;;;;5.13;2.50;;;;;;;;;;4986529;28;21274;-71
2023/08/29 07:26:43;;;;;;;3.28;2.28;;;;;;;;;;4989733;28;20033;-71
2023/08/29 07:29:09;;;;;;;3.22;2.08;;;;;;;;;;5000431;28;20034;-71
2023/08/29 07:31:35;;;;;;;2.72;2.20;;;;;;;;;;4984830;28;20489;-72
2023/08/29 07:34:01;;;;;;;2.67;2.13;;;;;;;;;;4985694;28;20035;-72
2023/08/29 07:36:28;;;;;;;3.05;2.40;;;;;;;;;;4988823;28;20174;-72
2023/08/29 07:38:54;;;;;;;5.55;2.35;;;;;;;;;;4995308;28;20050;-72
2023/08/29 07:41:20;;;;;;;3.83;2.42;;;;;;;;;;4982286;28;20042;-75
2023/08/29 07:43:46;;;;;;;5.82;2.28;;;;;;;;;;4986886;28;20387;-75
2023/08/29 07:46:12;;;;;;;3.40;1.70;;;;;;;;;;4986719;28;20042;-74
2023/08/29 07:48:38;;;;;;;1.63;1.10;;;;;;;;;;4991405;28;20034;-73
2023/08/29 07:51:04;;;;;;;3.45;1.60;;;;;;;;;;4981706;28;20327;-72
2023/08/29 07:53:30;;;;;;;5.45;3.15;;;;;;;;;;4991301;28;20100;-72
2023/08/29 07:55:57;;;;;;;3.47;1.90;;;;;;;;;;5000194;28;20062;-74
2023/08/29 07:58:23;;;;;;;4.07;1.63;;;;;;;;;;4986037;28;20030;-73
2023/08/29 08:00:49;;;;;;;3.20;1.10;;;;;;;;;;4995417;28;20047;-74
2023/08/29 08:03:15;;;;;;;1.58;0.60;;;;;;;;;;4982730;28;20026;-73
2023/08/29 08:05:41;;;;;;;0.68;0.50;;;;;;;;;;4986962;28;20030;-74
2023/08/29 08:08:07;;;;;;;3.20;0.60;;;;;;;;;;4996900;28;20037;-73
2023/08/29 08:10:33;;;;;;;10.88;7.32;;;;;;;;;;4986976;28;20049;-77
2023/08/29 08:12:59;;;;;;;3.90;2.65;;;;;;;;;;4988400;28;20034;-76
2023/08/29 08:15:25;;;;;;;4.80;2.63;;;;;;;;;;4995307;28;20070;-78
2023/08/29 08:17:51;;;;;;;1.23;0.40;;;;;;;;;;4984255;28;20043;-74
2023/08/29 08:20:17;;;;;;;2.97;0.93;;;;;;;;;;4988277;28;20996;-75
2023/08/29 08:22:44;;;;;;;1.08;0.40;;;;;;;;;;4986229;28;20511;-74
2023/08/29 08:25:10;;;;;;;1.30;0.43;;;;;;;;;;4987899;28;20034;-74
2023/08/29 08:27:36;;;;;;;1.25;0.68;;;;;;;;;;4988108;28;20049;-73
2023/08/29 08:30:05;;;;;;;0.95;0.68;;;;;;;;;;4983933;28;20391;-76
2023/08/29 08:32:31;;;;;;;0.68;0.68;;;;;;;;;;4986805;28;20030;-75
2023/08/29 08:34:57;;;;;;;2.40;0.85;;;;;;;;;;4985946;28;20030;-75
2023/08/29 08:37:24;;;;;;;1.52;0.90;;;;;;;;;;4984752;28;20033;-75
2023/08/29 08:39:50;;;;;;;1.83;1.00;;;;;;;;;;5002676;28;20480;-75
2023/08/29 08:42:16;;;;;;;3.95;1.08;;;;;;;;;;4989283;28;20054;-74
2023/08/29 08:44:43;;;;;;;47.10;30.98;;;;;;;;;;4986767;28;20042;-81
2023/08/29 08:47:09;;;;;;;10.55;7.05;;;;;;;;;;4980287;28;20035;-82
2023/08/29 08:49:35;;;;;;;8.70;5.82;;;;;;;;;;4976295;28;20033;-82
2023/08/29 08:52:03;;;;;;;2.55;1.63;;;;;;;;;;4989557;28;20142;-82
2023/08/29 08:54:29;;;;;;;1.77;1.15;;;;;;;;;;4987529;28;20038;-74
2023/08/29 08:56:57;;;;;;;1.33;1.05;;;;;;;;;;4984155;28;20096;-75
2023/08/29 08:59:24;;;;;;;3.78;1.40;;;;;;;;;;4984962;28;20029;-75
2023/08/29 09:01:50;;;;;;;13.52;9.40;;;;;;;;;;4982739;28;20095;-76
2023/08/29 09:04:16;;;;;;;36.55;25.23;;;;;;;;;;4983838;28;20084;-77
2023/08/29 09:06:42;;;;;;;6.05;3.08;;;;;;;;;;4984412;28;20038;-76
2023/08/29 09:09:34;;;;;;;2.90;1.60;;;;;;;;;;4990990;28;20066;-75
2023/08/29 09:12:00;;;;;;;2.95;1.63;;;;;;;;;;4983004;28;20635;-73
2023/08/29 09:14:27;;;;;;;3.67;1.58;;;;;;;;;;4990397;28;20162;-73
2023/08/29 09:16:54;;;;;;;2.03;1.63;;;;;;;;;;4978961;28;20031;-75
2023/08/29 09:19:22;;;;;;;1.55;1.40;;;;;;;;;;4984471;28;20092;-73
2023/08/29 09:21:48;;;;;;;3.13;2.03;;;;;;;;;;4985172;28;20037;-76
2023/08/29 09:24:14;;;;;;;1.98;1.40;;;;;;;;;;4985355;28;20066;-75
2023/08/29 09:26:41;;;;;;;2.75;1.40;;;;;;;;;;4983148;28;20088;-76
2023/08/29 09:29:20;;;;;;;1.95;1.58;;;;;;;;;;4990411;28;20045;-73
2023/08/29 09:31:49;;;;;;;3.28;1.10;;;;;;;;;;4984234;28;20469;-75
2023/08/29 09:34:31;;;;;;;1.67;1.40;;;;;;;;;;4980345;28;20204;-77
2023/08/29 09:36:57;;;;;;;4.55;1.58;;;;;;;;;;4978565;28;20651;-78
2023/08/29 09:39:24;;;;;;;10.60;8.63;;;;;;;;;;4976411;28;20065;-74
2023/08/29 09:42:00;;;;;;;3.83;1.92;;;;;;;;;;4985066;28;20036;-73
2023/08/29 09:44:27;;;;;;;3.10;2.03;;;;;;;;;;4984635;28;20058;-74
2023/08/29 09:46:53;;;;;;;1.80;1.48;;;;;;;;;;4985936;28;20068;-78
2023/08/29 09:49:19;;;;;;;2.50;1.33;;;;;;;;;;4982658;28;20447;-73
2023/08/29 09:51:45;;;;;;;1.80;1.60;;;;;;;;;;4992674;28;20042;-73
2023/08/29 09:54:13;;;;;;;2.20;1.52;;;;;;;;;;4991132;28;20042;-74
2023/08/29 09:56:42;;;;;;;3.28;1.55;;;;;;;;;;4985164;28;20034;-73
2023/08/29 09:59:12;;;;;;;3.22;1.35;;;;;;;;;;4990683;28;20479;-73
2023/08/29 10:01:40;;;;;;;2.05;1.30;;;;;;;;;;4984762;28;20113;-74
2023/08/29 10:04:09;;;;;;;2.05;1.17;;;;;;;;;;4988024;28;20033;-74
2023/08/29 10:06:36;;;;;;;1.30;1.00;;;;;;;;;;4988318;28;20045;-73
2023/08/29 10:09:03;;;;;;;3.35;1.40;;;;;;;;;;4990690;28;20053;-73
2023/08/29 10:11:29;;;;;;;2.55;1.40;;;;;;;;;;4983528;28;20388;-78
2023/08/29 10:13:55;;;;;;;1.35;1.17;;;;;;;;;;4988480;28;20038;-81
2023/08/29 10:16:22;;;;;;;13.07;11.70;;;;;;;;;;4989577;28;20471;-74
2023/08/29 10:18:49;;;;;;;11.07;7.70;;;;;;;;;;4990058;28;20383;-73
2023/08/29 10:21:15;;;;;;;6.28;3.53;;;;;;;;;;4986680;28;20045;-73
2023/08/29 10:23:41;;;;;;;1.92;1.25;;;;;;;;;;4987487;28;20037;-74
2023/08/29 10:26:07;;;;;;;4.13;1.10;;;;;;;;;;4982921;28;20034;-75
2023/08/29 10:28:35;;;;;;;3.63;1.00;;;;;;;;;;4988521;28;20081;-74
2023/08/29 10:31:01;;;;;;;1.55;1.00;;;;;;;;;;4995403;28;20037;-74
2023/08/29 10:33:27;;;;;;;1.77;1.23;;;;;;;;;;4992260;28;20019;-73
2023/08/29 10:35:53;;;;;;;2.17;1.25;;;;;;;;;;4983203;28;20388;-73
2023/08/29 10:38:19;;;;;;;2.97;1.15;;;;;;;;;;4987268;28;20030;-74
2023/08/29 10:40:48;;;;;;;2.28;1.05;;;;;;;;;;4994400;28;20133;-71
2023/08/29 10:43:21;;;;;;;1.25;1.10;;;;;;;;;;4986988;28;20059;-73
2023/08/29 10:45:47;;;;;;;1.70;1.15;;;;;;;;;;4987742;28;21076;-73
2023/08/29 10:48:20;;;;;;;13.50;8.07;;;;;;;;;;4992900;28;20613;-77
2023/08/29 10:50:48;;;;;;;5.95;2.80;;;;;;;;;;4990306;28;20062;-74
2023/08/29 10:53:21;;;;;;;3.20;1.17;;;;;;;;;;4991255;28;20500;-75
2023/08/29 10:56:03;;;;;;;1.40;1.13;;;;;;;;;;4983552;28;20034;-76
2023/08/29 10:58:36;;;;;;;1.33;1.23;;;;;;;;;;4989966;28;20381;-76
2023/08/29 11:01:01;;;;;;;;;;;;;;;;;;4990217;28;20468;-76
2023/08/29 11:03:48;;;;;;;1.42;1.00;;;;;;;;;;4989843;28;20024;-76
2023/08/29 11:06:14;;;;;;;3.60;1.45;;;;;;;;;;4984911;28;20027;-77
2023/08/29 11:08:41;;;;;;;21.38;19.15;;;;;;;;;;4988966;28;20034;-81
2023/08/29 11:11:16;;;;;;;9.05;5.93;;;;;;;;;;4990344;28;20262;-82
2023/08/29 11:14:02;;;;;;;1.45;1.35;;;;;;;;;;5003771;28;20034;-83
2023/08/29 11:16:30;;;;;;;2.55;1.30;;;;;;;;;;4986128;28;20484;-77
2023/08/29 11:19:13;;;;;;;3.03;1.27;;;;;;;;;;4982712;28;20381;-73
2023/08/29 11:21:40;;;;;;;2.30;1.60;;;;;;;;;;5014435;28;20502;-71
2023/08/29 11:24:06;;;;;;;2.15;1.42;;;;;;;;;;4983971;28;20030;-71
2023/08/29 11:26:36;;;;;;;2.53;1.17;;;;;;;;;;4988366;28;20057;-71
2023/08/29 11:29:05;;;;;;;1.30;0.88;;;;;;;;;;4993248;28;20523;-73
2023/08/29 11:31:33;;;;;;;1.83;0.98;;;;;;;;;;4984325;28;20041;-73
2023/08/29 11:33:59;;;;;;;1.35;1.15;;;;;;;;;;4987015;28;20109;-74
2023/08/29 11:36:32;;;;;;;1.35;1.00;;;;;;;;;;4987288;28;20058;-74
2023/08/29 11:38:58;;;;;;;3.17;1.02;;;;;;;;;;4982802;28;20042;-73
2023/08/29 11:41:27;;;;;;;1.75;1.27;;;;;;;;;;4982705;28;20034;-74
2023/08/29 11:43:54;;;;;;;2.25;1.83;;;;;;;;;;4986730;28;20473;-75
2023/08/29 11:46:21;;;;;;;0.73;0.60;;;;;;;;;;4983358;28;20034;-73
2023/08/29 11:48:47;;;;;;;6.40;0.90;;;;;;;;;;4988530;28;20031;-75
2023/08/29 11:51:13;;;;;;;1.27;0.77;;;;;;;;;;4987393;28;20184;-73
2023/08/29 11:53:39;;;;;;;0.73;0.60;;;;;;;;;;4982362;28;20528;-73
2023/08/29 11:56:09;;;;;;;3.75;1.00;;;;;;;;;;4978466;28;20058;-73
2023/08/29 11:58:35;;;;;;;3.17;1.00;;;;;;;;;;4978520;28;20030;-73
2023/08/29 12:01:02;;;;;;;1.88;0.93;;;;;;;;;;4981087;28;20038;-73
2023/08/29 12:03:28;;;;;;;2.30;0.80;;;;;;;;;;4985791;28;20049;-74
2023/08/29 12:05:58;;;;;;;3.05;0.93;;;;;;;;;;4985202;28;20035;-74
2023/08/29 12:08:53;;;;;;;4.00;1.20;;;;;;;;;;4987147;28;20415;-74
2023/08/29 12:11:21;;;;;;;1.58;1.00;;;;;;;;;;4981332;28;20250;-73
2023/08/29 12:14:00;;;;;;;2.42;0.93;;;;;;;;;;4986164;28;20068;-73
2023/08/29 12:16:28;;;;;;;1.98;1.02;;;;;;;;;;4982197;28;20014;-75
2023/08/29 12:19:07;;;;;;;2.05;0.95;;;;;;;;;;4985152;28;20034;-75
2023/08/29 12:21:33;;;;;;;1.25;1.00;;;;;;;;;;4993478;28;20046;-73
2023/08/29 12:24:09;;;;;;;2.05;0.90;;;;;;;;;;4987112;28;20049;-73
2023/08/29 12:26:35;;;;;;;3.83;0.90;;;;;;;;;;4985621;28;20446;-71
2023/08/29 12:29:02;;;;;;;2.55;1.20;;;;;;;;;;4985065;28;20042;-71
2023/08/29 12:31:28;;;;;;;3.60;1.17;;;;;;;;;;4986547;28;20480;-71
2023/08/29 12:33:54;;;;;;;2.10;1.10;;;;;;;;;;4988211;28;20097;-71
2023/08/29 12:36:20;;;;;;;2.78;1.20;;;;;;;;;;4986861;28;20114;-71
2023/08/29 12:38:46;;;;;;;6.43;1.10;;;;;;;;;;4992197;28;20034;-73
2023/08/29 12:41:16;;;;;;;2.10;0.95;;;;;;;;;;4985416;28;20085;-73
2023/08/29 12:43:42;;;;;;;1.63;0.90;;;;;;;;;;4984867;28;20035;-73
2023/08/29 12:46:09;;;;;;;1.55;1.02;;;;;;;;;;4984941;28;20034;-73
2023/08/29 12:48:35;;;;;;;1.70;1.00;;;;;;;;;;4982056;28;20053;-73
2023/08/29 12:51:02;;;;;;;1.55;0.88;;;;;;;;;;4983640;28;20408;-73
2023/08/29 12:53:30;;;;;;;4.07;1.33;;;;;;;;;;4986805;28;20073;-73
2023/08/29 12:55:57;;;;;;;2.10;1.13;;;;;;;;;;4982822;28;20022;-73
2023/08/29 12:58:23;;;;;;;2.70;1.50;;;;;;;;;;4986058;28;20034;-73
2023/08/29 13:00:49;;;;;;;2.65;1.33;;;;;;;;;;4982179;28;20093;-73
2023/08/29 13:03:15;;;;;;;1.17;0.95;;;;;;;;;;4984256;28;20452;-74
2023/08/29 13:05:41;;;;;;;3.45;1.10;;;;;;;;;;4983255;28;20383;-74
2023/08/29 13:08:07;;;;;;;2.75;1.20;;;;;;;;;;4985088;28;20037;-73
2023/08/29 13:10:34;;;;;;;2.72;0.90;;;;;;;;;;4982895;28;20042;-73
2023/08/29 13:13:00;;;;;;;2.08;1.10;;;;;;;;;;4986082;28;20030;-74
2023/08/29 13:15:26;;;;;;;2.20;1.20;;;;;;;;;;4980846;28;21557;-70
2023/08/29 13:17:52;;;;;;;1.15;1.00;;;;;;;;;;4989926;28;20047;-73
2023/08/29 13:20:19;;;;;;;1.45;1.00;;;;;;;;;;4991196;28;20034;-73
2023/08/29 13:22:46;;;;;;;2.97;0.95;;;;;;;;;;4989001;28;20038;-71
2023/08/29 13:25:12;;;;;;;2.15;0.98;;;;;;;;;;4989750;28;20026;-73
2023/08/29 13:27:39;;;;;;;1.50;0.90;;;;;;;;;;4990456;28;20180;-74
2023/08/29 13:30:05;;;;;;;1.52;0.90;;;;;;;;;;4973442;28;20411;-72
2023/08/29 13:32:35;;;;;;;1.55;0.90;;;;;;;;;;4994928;28;20041;-71
2023/08/29 13:35:02;;;;;;;3.53;0.63;;;;;;;;;;4988250;28;20029;-72
2023/08/29 13:37:28;;;;;;;1.27;0.90;;;;;;;;;;4991391;28;20380;-71
2023/08/29 13:39:56;;;;;;;1.55;0.95;;;;;;;;;;4989427;28;20117;-72
2023/08/29 13:42:22;;;;;;;1.48;0.93;;;;;;;;;;4988756;28;20061;-71
2023/08/29 13:44:49;;;;;;;2.45;0.70;;;;;;;;;;4980708;28;20034;-72
2023/08/29 13:47:15;;;;;;;1.25;0.90;;;;;;;;;;4989138;28;20029;-72
2023/08/29 13:49:41;;;;;;;1.48;0.73;;;;;;;;;;4989560;28;20049;-73
2023/08/29 13:52:08;;;;;;;1.38;0.98;;;;;;;;;;4985163;28;20210;-72
2023/08/29 13:54:34;;;;;;;1.63;1.00;;;;;;;;;;4981205;28;20046;-71
2023/08/29 13:57:00;;;;;;;1.02;0.80;;;;;;;;;;4984646;28;20041;-71
2023/08/29 13:59:26;;;;;;;1.50;1.00;;;;;;;;;;4983630;28;20073;-71
2023/08/29 14:01:52;;;;;;;2.28;1.00;;;;;;;;;;4985125;28;20038;-71
2023/08/29 14:04:18;;;;;;;1.95;1.10;;;;;;;;;;4982858;28;20476;-72
2023/08/29 14:06:44;;;;;;;1.40;0.90;;;;;;;;;;4989998;28;20046;-74
2023/08/29 14:09:10;;;;;;;2.35;1.02;;;;;;;;;;4989612;28;20062;-71
2023/08/29 14:11:36;;;;;;;1.58;0.73;;;;;;;;;;4990354;28;20230;-73
2023/08/29 14:14:02;;;;;;;1.35;0.63;;;;;;;;;;4990765;28;20250;-72
2023/08/29 14:16:28;;;;;;;3.05;0.75;;;;;;;;;;4989258;28;20539;-72
2023/08/29 14:18:54;;;;;;;1.70;0.70;;;;;;;;;;4984316;28;20085;-71
2023/08/29 14:21:20;;;;;;;1.63;0.73;;;;;;;;;;4982701;28;20035;-73
2023/08/29 14:23:46;;;;;;;1.33;0.75;;;;;;;;;;5006167;28;20038;-80
2023/08/29 14:26:13;;;;;;;0.77;0.65;;;;;;;;;;4994095;28;20127;-84
2023/08/29 14:28:39;;;;;;;1.45;0.63;;;;;;;;;;4993288;28;20038;-85
2023/08/29 14:31:05;;;;;;;0.70;0.60;;;;;;;;;;4990077;28;20512;-87
2023/08/29 14:33:31;;;;;;;0.77;0.55;;;;;;;;;;4996940;28;20041;-83
2023/08/29 14:35:58;;;;;;;25.58;17.27;;;;;;;;;;4984353;28;20042;-79
2023/08/29 14:38:24;;;;;;;4.88;3.28;;;;;;;;;;4995446;28;20105;-83
2023/08/29 14:40:50;;;;;;;1.83;0.80;;;;;;;;;;4991468;28;20077;-81
2023/08/29 14:43:16;;;;;;;1.52;0.60;;;;;;;;;;4990035;28;20085;-83